createdAt,value
2023-05-20T00:02:10.421Z,1006.57
2023-05-20T00:07:10.345Z,1006.50
2023-05-20T00:12:10.282Z,1006.37
2023-05-20T00:17:10.225Z,1006.40
2023-05-20T00:22:10.153Z,1006.30
2023-05-20T00:27:10.093Z,1006.36
2023-05-20T00:32:10.087Z,1006.28
2023-05-20T00:37:09.968Z,1006.28
2023-05-20T00:42:09.891Z,1006.25
2023-05-20T00:47:09.834Z,1006.15
2023-05-20T00:52:09.762Z,1006.21
2023-05-20T00:57:09.688Z,1006.14
2023-05-20T01:02:09.661Z,1006.20
2023-05-20T01:07:09.557Z,1006.20
2023-05-20T01:12:09.498Z,1006.16
2023-05-20T01:17:09.443Z,1006.10
2023-05-20T01:22:09.378Z,1006.05
2023-05-20T01:27:09.305Z,1006.07
2023-05-20T01:32:09.227Z,1006.06
2023-05-20T01:37:09.176Z,1006.10
2023-05-20T01:42:09.132Z,1006.03
2023-05-20T01:47:09.056Z,1006.10
2023-05-20T01:52:08.987Z,1006.11
2023-05-20T01:57:08.927Z,1006.12
2023-05-20T02:02:08.871Z,1006.18
2023-05-20T02:07:08.785Z,1006.13
2023-05-20T02:12:08.736Z,1006.11
2023-05-20T02:17:08.665Z,1006.14
2023-05-20T02:22:08.601Z,1006.07
2023-05-20T02:27:08.555Z,1006.14
2023-05-20T02:32:08.463Z,1006.14
2023-05-20T02:37:08.422Z,1006.04
2023-05-20T02:42:08.347Z,1006.06
2023-05-20T02:47:08.300Z,1005.95
2023-05-20T02:52:08.208Z,1006.00
2023-05-20T02:57:08.161Z,1006.17
2023-05-20T03:02:08.087Z,1006.19
2023-05-20T03:07:08.038Z,1006.14
2023-05-20T03:12:07.955Z,1006.15
2023-05-20T03:17:07.910Z,1006.08
2023-05-20T03:22:07.829Z,1006.04
2023-05-20T03:27:07.760Z,1005.98
2023-05-20T03:32:09.455Z,1006.07
2023-05-20T03:37:07.633Z,1005.96
2023-05-20T03:42:07.569Z,1005.86
2023-05-20T03:47:07.546Z,1005.94
2023-05-20T03:52:07.458Z,1005.82
2023-05-20T03:57:07.392Z,1005.87
2023-05-20T04:02:07.362Z,1005.89
2023-05-20T04:07:07.258Z,1005.87
2023-05-20T04:12:07.226Z,1005.85
2023-05-20T04:17:07.286Z,1005.86
2023-05-20T04:22:07.078Z,1005.95
2023-05-20T04:27:07.011Z,1006.07
2023-05-20T04:32:07.002Z,1006.00
2023-05-20T04:37:06.880Z,1005.99
2023-05-20T04:42:06.821Z,1006.17
2023-05-20T04:47:06.767Z,1006.26
2023-05-20T04:52:06.705Z,1006.26
2023-05-20T04:57:06.632Z,1006.49
2023-05-20T05:02:06.551Z,1006.24
2023-05-20T05:07:06.501Z,1006.19
2023-05-20T05:12:06.439Z,1006.08
2023-05-20T05:17:06.392Z,1006.05
2023-05-20T05:22:06.307Z,1006.05
2023-05-20T05:27:06.237Z,1006.11
2023-05-20T05:32:06.240Z,1006.11
2023-05-20T05:37:06.101Z,1006.04
2023-05-20T05:42:06.045Z,1006.01
2023-05-20T05:47:06.149Z,1005.94
2023-05-20T05:52:05.897Z,1006.02
2023-05-20T05:57:06.460Z,1006.02
2023-05-20T06:02:05.804Z,1005.93
2023-05-20T06:07:05.714Z,1006.01
2023-05-20T06:12:05.641Z,1006.03
2023-05-20T06:17:05.740Z,1006.01
2023-05-20T06:22:05.518Z,1005.97
2023-05-20T06:27:05.460Z,1005.97
2023-05-20T06:32:05.383Z,1005.99
2023-05-20T06:37:05.334Z,1006.01
2023-05-20T06:42:05.304Z,1006.00
2023-05-20T06:47:05.190Z,1005.97
2023-05-20T06:52:05.126Z,1005.80
2023-05-20T06:57:05.065Z,1005.70
2023-05-20T07:02:05.122Z,1005.76
2023-05-20T07:07:04.936Z,1005.81
2023-05-20T07:12:04.878Z,1005.83
2023-05-20T07:17:04.815Z,1005.77
2023-05-20T07:22:04.731Z,1005.70
2023-05-20T07:27:04.670Z,1005.76
2023-05-20T07:32:04.653Z,1005.65
2023-05-20T07:37:04.539Z,1005.53
2023-05-20T07:42:04.487Z,1005.51
2023-05-20T07:47:04.419Z,1005.56
2023-05-20T07:52:04.340Z,1005.44
2023-05-20T07:57:04.286Z,1005.62
2023-05-20T08:02:04.235Z,1005.52
2023-05-20T08:07:04.152Z,1005.52
2023-05-20T08:12:04.103Z,1005.41
2023-05-20T08:17:04.071Z,1005.26
2023-05-20T08:22:03.962Z,1005.19
2023-05-20T08:27:03.896Z,1005.16
2023-05-20T08:32:03.818Z,1005.20
2023-05-20T08:37:03.748Z,1005.21
2023-05-20T08:42:03.682Z,1005.19
2023-05-20T08:47:03.612Z,1005.24
2023-05-20T08:52:03.539Z,1005.14
2023-05-20T08:57:03.495Z,1005.26
2023-05-20T09:02:03.455Z,1005.20
2023-05-20T09:07:03.357Z,1005.22
2023-05-20T09:12:03.287Z,1005.06
2023-05-20T09:17:03.223Z,1005.00
2023-05-20T09:22:03.145Z,1004.93
2023-05-20T09:27:03.113Z,1004.84
2023-05-20T09:32:03.071Z,1004.75
2023-05-20T09:37:02.964Z,1004.86
2023-05-20T09:42:03.958Z,1004.79
2023-05-20T09:47:02.824Z,1004.76
2023-05-20T09:52:02.754Z,1004.69
2023-05-20T09:57:02.707Z,1004.59
2023-05-20T10:02:02.649Z,1004.53
2023-05-20T10:07:02.571Z,1004.49
2023-05-20T10:12:02.505Z,1004.30
2023-05-20T10:17:02.450Z,1004.24
2023-05-20T10:22:02.372Z,1004.27
2023-05-20T10:27:02.296Z,1004.28
2023-05-20T10:32:02.252Z,1004.28
2023-05-20T10:37:02.208Z,1004.20
2023-05-20T10:42:02.113Z,1004.18
2023-05-20T10:47:23.764Z,1004.03
2023-05-20T10:52:03.038Z,1004.09
2023-05-20T10:57:01.929Z,1003.91
2023-05-20T11:02:01.848Z,1003.82
2023-05-20T11:07:01.804Z,1003.80
2023-05-20T11:12:01.724Z,1003.86
2023-05-20T11:17:01.794Z,1003.86
2023-05-20T11:22:01.592Z,1003.71
2023-05-20T11:27:01.541Z,1003.77
2023-05-20T11:32:01.527Z,1003.61
2023-05-20T11:37:01.410Z,1003.54
2023-05-20T11:42:01.340Z,1003.45
2023-05-20T11:47:01.267Z,1003.38
2023-05-20T11:52:01.208Z,1003.43
2023-05-20T11:57:01.137Z,1003.31
2023-05-20T12:02:01.072Z,1003.28
2023-05-20T12:07:01.091Z,1003.26
2023-05-20T12:12:00.930Z,1003.38
2023-05-20T12:17:00.870Z,1003.24
2023-05-20T12:22:00.793Z,1003.18
2023-05-20T12:27:00.747Z,1003.22
2023-05-20T12:32:00.692Z,1003.02
2023-05-20T12:37:00.601Z,1003.04
2023-05-20T12:42:00.532Z,1003.02
2023-05-20T12:47:00.518Z,1002.98
2023-05-20T12:52:03.550Z,1002.96
2023-05-20T12:57:00.324Z,1002.70
2023-05-20T13:02:00.393Z,1002.63
2023-05-20T13:07:00.206Z,1002.61
2023-05-20T13:12:00.139Z,1002.61
2023-05-20T13:17:00.190Z,1002.54
2023-05-20T13:21:59.992Z,1002.44
2023-05-20T13:26:59.959Z,1002.45
2023-05-20T13:32:01.978Z,1002.45
2023-05-20T13:36:59.811Z,1002.38
2023-05-20T13:41:59.748Z,1002.30
2023-05-20T13:46:59.687Z,1002.21
2023-05-20T13:51:59.614Z,1002.07
2023-05-20T13:56:59.574Z,1002.17
2023-05-20T14:01:59.618Z,1002.19
2023-05-20T14:06:59.515Z,1001.96
2023-05-20T14:11:59.342Z,1001.95
2023-05-20T14:16:59.266Z,1001.91
2023-05-20T14:21:59.218Z,1001.76
2023-05-20T14:26:59.159Z,1001.66
2023-05-20T14:31:59.112Z,1001.57
2023-05-20T14:36:59.014Z,1001.53
2023-05-20T14:41:58.938Z,1001.62
2023-05-20T14:46:58.950Z,1001.54
2023-05-20T14:51:58.814Z,1001.56
2023-05-20T14:56:58.773Z,1001.42
2023-05-20T15:01:58.705Z,1001.38
2023-05-20T15:06:58.644Z,1001.45
2023-05-20T15:11:58.546Z,1001.39
2023-05-20T15:16:58.526Z,1001.38
2023-05-20T15:21:58.418Z,1001.26
2023-05-20T15:26:58.376Z,1001.22
2023-05-20T15:31:58.296Z,1001.19
2023-05-20T15:36:58.233Z,1001.16
2023-05-20T15:41:58.170Z,1001.26
2023-05-20T15:46:58.104Z,1001.02
2023-05-20T15:52:03.465Z,1001.00
2023-05-20T15:56:57.983Z,1001.10
2023-05-20T16:01:57.908Z,1001.11
2023-05-20T16:06:57.866Z,1001.04
2023-05-20T16:11:57.784Z,1001.09
2023-05-20T16:16:57.731Z,1000.85
2023-05-20T16:21:57.675Z,1000.81
2023-05-20T16:26:57.604Z,1000.68
2023-05-20T16:31:57.639Z,1000.74
2023-05-20T16:36:57.472Z,1000.84
2023-05-20T16:41:57.406Z,1000.71
2023-05-20T16:46:57.322Z,1000.64
2023-05-20T16:51:57.328Z,1000.63
2023-05-20T16:56:57.204Z,1000.63
2023-05-20T17:01:57.134Z,1000.77
2023-05-20T17:06:57.070Z,1000.73
2023-05-20T17:11:56.994Z,1000.71
2023-05-20T17:16:56.981Z,1000.71
2023-05-20T17:21:56.872Z,1000.78
2023-05-20T17:26:56.827Z,1000.71
2023-05-20T17:31:56.739Z,1000.89
2023-05-20T17:36:56.688Z,1000.94
2023-05-20T17:41:56.615Z,1000.87
2023-05-20T17:46:56.559Z,1000.93
2023-05-20T17:51:56.474Z,1000.94
2023-05-20T17:56:56.428Z,1000.89
2023-05-20T18:01:56.416Z,1000.93
2023-05-20T18:06:56.296Z,1000.99
2023-05-20T18:11:56.233Z,1000.93
2023-05-20T18:16:56.181Z,1000.96
2023-05-20T18:21:56.108Z,1001.08
2023-05-20T18:26:56.039Z,1001.15
2023-05-20T18:31:56.061Z,1001.09
2023-05-20T18:36:55.914Z,1001.14
2023-05-20T18:41:55.840Z,1001.19
2023-05-20T18:46:55.767Z,1001.18
2023-05-20T18:51:55.694Z,1001.25
2023-05-20T18:56:55.630Z,1001.25
2023-05-20T19:01:55.563Z,1001.33
2023-05-20T19:06:55.511Z,1001.30
2023-05-20T19:11:55.426Z,1001.37
2023-05-20T19:16:55.414Z,1001.39
2023-05-20T19:21:55.282Z,1001.37
2023-05-20T19:26:55.230Z,1001.41
2023-05-20T19:31:55.159Z,1001.45
2023-05-20T19:36:55.103Z,1001.45
2023-05-20T19:41:55.025Z,1001.56
2023-05-20T19:46:54.956Z,1001.56
2023-05-20T19:51:54.901Z,1001.58
2023-05-20T19:56:54.813Z,1001.63
2023-05-20T20:01:54.785Z,1001.49
2023-05-20T20:06:54.686Z,1001.48
2023-05-20T20:11:54.647Z,1001.46
2023-05-20T20:16:54.574Z,1001.45
2023-05-20T20:21:54.484Z,1001.45
2023-05-20T20:26:54.426Z,1001.49
2023-05-20T20:31:54.391Z,1001.52
2023-05-20T20:36:54.318Z,1001.51
2023-05-20T20:41:54.228Z,1001.52
2023-05-20T20:46:54.179Z,1001.50
2023-05-20T20:51:54.120Z,1001.51
2023-05-20T20:56:54.050Z,1001.54
2023-05-20T21:01:54.066Z,1001.47
2023-05-20T21:06:54.032Z,1001.49
2023-05-20T21:11:54.059Z,1001.40
2023-05-20T21:16:54.199Z,1001.39
2023-05-20T21:21:54.066Z,1001.32
2023-05-20T21:26:54.110Z,1001.30
2023-05-20T21:31:54.102Z,1001.27
2023-05-20T21:36:53.533Z,1001.31
2023-05-20T21:41:53.470Z,1001.22
2023-05-20T21:46:53.502Z,1001.27
2023-05-20T21:51:53.360Z,1001.26
2023-05-20T21:56:53.285Z,1001.24
2023-05-20T22:01:53.241Z,1001.28
2023-05-20T22:06:53.155Z,1001.32
2023-05-20T22:11:53.074Z,1001.26
2023-05-20T22:16:53.016Z,1001.24
2023-05-20T22:21:52.945Z,1001.20
2023-05-20T22:26:52.876Z,1001.19
2023-05-20T22:31:52.986Z,1001.14
2023-05-20T22:36:52.752Z,1001.13
2023-05-20T22:41:52.676Z,1001.07
2023-05-20T22:46:52.631Z,1001.06
2023-05-20T22:51:52.549Z,1000.98
2023-05-20T22:56:52.488Z,1000.89
2023-05-20T23:01:52.422Z,1000.87
2023-05-20T23:06:52.354Z,1000.84
2023-05-20T23:11:52.283Z,1000.88
2023-05-20T23:16:52.304Z,1000.87
2023-05-20T23:21:52.171Z,1000.78
2023-05-20T23:26:52.092Z,1000.75
2023-05-20T23:31:52.019Z,1000.78
2023-05-20T23:36:51.965Z,1000.74
2023-05-20T23:41:51.880Z,1000.85
2023-05-20T23:46:51.829Z,1000.79
2023-05-20T23:51:51.737Z,1000.74
2023-05-20T23:56:51.693Z,1000.70
